sensor_id;sensor_type;location;lat;lon;timestamp;pressure;altitude;pressure_sealevel;temperature;humidity
46392;BME280;32098;49.448;7.904;2024-03-23T00:52:28;97264.78;;;9.08;81.20
46392;BME280;32098;49.448;7.904;2024-03-23T00:54:53;97273.22;;;9.28;80.96
46392;BME280;32098;49.448;7.904;2024-03-23T00:57:19;97097.81;;;8.14;78.04
46392;BME280;32098;49.448;7.904;2024-03-23T00:59:52;97245.94;;;8.75;79.51
46392;BME280;32098;49.448;7.904;2024-03-23T01:02:18;97217.66;;;8.57;79.96
46392;BME280;32098;49.448;7.904;2024-03-23T01:04:44;97289.75;;;9.19;80.52
46392;BME280;32098;49.448;7.904;2024-03-23T01:07:10;97260.09;;;9.22;80.52
46392;BME280;32098;49.448;7.904;2024-03-23T01:09:36;97227.38;;;9.10;79.98
46392;BME280;32098;49.448;7.904;2024-03-23T01:12:05;97330.09;;;9.90;78.95
46392;BME280;32098;49.448;7.904;2024-03-23T01:14:30;97335.75;;;10.06;79.54
46392;BME280;32098;49.448;7.904;2024-03-23T01:16:56;97302.13;;;10.00;80.01
46392;BME280;32098;49.448;7.904;2024-03-23T01:19:22;97279.69;;;9.95;80.39
46392;BME280;32098;49.448;7.904;2024-03-23T01:21:48;97297.88;;;10.27;79.45
46392;BME280;32098;49.448;7.904;2024-03-23T01:24:15;97234.00;;;9.82;78.07
46392;BME280;32098;49.448;7.904;2024-03-23T01:26:41;97335.50;;;10.47;78.37
46392;BME280;32098;49.448;7.904;2024-03-23T01:29:07;97309.88;;;10.57;77.52
46392;BME280;32098;49.448;7.904;2024-03-23T01:31:32;97148.59;;;9.50;76.74
46392;BME280;32098;49.448;7.904;2024-03-23T01:34:06;97259.50;;;10.23;76.56
46392;BME280;32098;49.448;7.904;2024-03-23T01:36:32;97316.56;;;10.60;76.32
46392;BME280;32098;49.448;7.904;2024-03-23T01:38:58;97308.13;;;10.63;76.27
46392;BME280;32098;49.448;7.904;2024-03-23T01:41:24;97241.44;;;10.25;76.16
46392;BME280;32098;49.448;7.904;2024-03-23T01:43:50;97198.25;;;9.89;76.42
46392;BME280;32098;49.448;7.904;2024-03-23T01:46:16;97280.75;;;10.51;76.53
46392;BME280;32098;49.448;7.904;2024-03-23T01:48:42;97302.22;;;10.61;77.02
46392;BME280;32098;49.448;7.904;2024-03-23T01:51:08;97260.03;;;10.36;76.98
46392;BME280;32098;49.448;7.904;2024-03-23T01:53:34;97275.53;;;10.56;76.66
46392;BME280;32098;49.448;7.904;2024-03-23T01:56:02;97193.88;;;10.12;76.63
46392;BME280;32098;49.448;7.904;2024-03-23T01:58:27;97264.97;;;10.61;76.84
46392;BME280;32098;49.448;7.904;2024-03-23T02:01:01;97269.72;;;10.59;76.76
46392;BME280;32098;49.448;7.904;2024-03-23T02:03:28;97246.19;;;10.51;76.98
46392;BME280;32098;49.448;7.904;2024-03-23T02:05:54;97273.16;;;10.71;77.11
46392;BME280;32098;49.448;7.904;2024-03-23T02:08:22;97274.78;;;10.72;77.11
46392;BME280;32098;49.448;7.904;2024-03-23T02:10:51;97185.59;;;10.25;77.37
46392;BME280;32098;49.448;7.904;2024-03-23T02:13:18;97259.13;;;10.76;77.34
46392;BME280;32098;49.448;7.904;2024-03-23T02:15:44;97262.13;;;10.79;77.02
46392;BME280;32098;49.448;7.904;2024-03-23T02:18:11;97261.31;;;10.79;76.80
46392;BME280;32098;49.448;7.904;2024-03-23T02:20:37;97196.47;;;10.40;76.61
46392;BME280;32098;49.448;7.904;2024-03-23T02:23:04;97262.13;;;10.79;76.50
46392;BME280;32098;49.448;7.904;2024-03-23T02:25:32;97253.88;;;10.81;76.17
46392;BME280;32098;49.448;7.904;2024-03-23T02:27:59;97260.28;;;10.80;76.24
46392;BME280;32098;49.448;7.904;2024-03-23T02:30:26;97217.00;;;10.56;75.92
46392;BME280;32098;49.448;7.904;2024-03-23T02:32:51;97260.03;;;10.81;75.78
46392;BME280;32098;49.448;7.904;2024-03-23T02:35:17;97227.72;;;10.61;75.69
46392;BME280;32098;49.448;7.904;2024-03-23T02:37:43;97141.34;;;10.02;75.77
46392;BME280;32098;49.448;7.904;2024-03-23T02:40:09;97107.63;;;9.74;75.10
46392;BME280;32098;49.448;7.904;2024-03-23T02:42:35;97194.81;;;10.34;75.28
46392;BME280;32098;49.448;7.904;2024-03-23T02:45:01;97236.00;;;10.48;76.00
46392;BME280;32098;49.448;7.904;2024-03-23T02:47:26;97238.19;;;10.51;75.43
46392;BME280;32098;49.448;7.904;2024-03-23T02:49:56;97190.91;;;10.25;75.36
46392;BME280;32098;49.448;7.904;2024-03-23T02:52:22;97274.28;;;10.75;75.91
46392;BME280;32098;49.448;7.904;2024-03-23T02:54:48;97238.91;;;10.63;75.64
46392;BME280;32098;49.448;7.904;2024-03-23T02:57:13;97217.38;;;10.48;75.48
46392;BME280;32098;49.448;7.904;2024-03-23T02:59:44;97148.50;;;10.18;75.55
46392;BME280;32098;49.448;7.904;2024-03-23T03:02:11;97240.84;;;10.79;75.20
46392;BME280;32098;49.448;7.904;2024-03-23T03:04:37;97247.66;;;10.75;75.39
46392;BME280;32098;49.448;7.904;2024-03-23T03:07:03;97199.72;;;10.58;75.48
46392;BME280;32098;49.448;7.904;2024-03-23T03:09:29;97191.13;;;10.51;75.43
46392;BME280;32098;49.448;7.904;2024-03-23T03:12:04;97182.31;;;10.34;75.57
46392;BME280;32098;49.448;7.904;2024-03-23T03:14:30;97191.84;;;10.47;76.01
46392;BME280;32098;49.448;7.904;2024-03-23T03:16:56;97237.03;;;10.75;75.98
46392;BME280;32098;49.448;7.904;2024-03-23T03:19:21;97184.25;;;10.39;76.25
46392;BME280;32098;49.448;7.904;2024-03-23T03:21:47;97175.28;;;10.45;75.44
46392;BME280;32098;49.448;7.904;2024-03-23T03:24:16;97193.78;;;10.51;75.96
46392;BME280;32098;49.448;7.904;2024-03-23T03:26:42;97223.13;;;10.56;75.67
46392;BME280;32098;49.448;7.904;2024-03-23T03:29:08;97204.63;;;10.50;76.13
46392;BME280;32098;49.448;7.904;2024-03-23T03:31:35;97235.66;;;10.73;76.25
46392;BME280;32098;49.448;7.904;2024-03-23T03:34:00;97200.28;;;10.44;76.63
46392;BME280;32098;49.448;7.904;2024-03-23T03:36:26;97199.91;;;10.52;76.69
46392;BME280;32098;49.448;7.904;2024-03-23T03:38:52;97166.91;;;10.36;76.56
46392;BME280;32098;49.448;7.904;2024-03-23T03:41:18;97171.59;;;10.46;76.22
46392;BME280;32098;49.448;7.904;2024-03-23T03:43:44;97215.63;;;10.53;76.63
46392;BME280;32098;49.448;7.904;2024-03-23T03:46:10;97237.03;;;10.75;76.25
46392;BME280;32098;49.448;7.904;2024-03-23T03:48:36;97178.75;;;10.29;76.57
46392;BME280;32098;49.448;7.904;2024-03-23T03:51:04;97184.72;;;10.52;76.38
46392;BME280;32098;49.448;7.904;2024-03-23T03:53:30;97179.31;;;10.47;76.41
46392;BME280;32098;49.448;7.904;2024-03-23T03:55:58;97129.50;;;10.10;76.93
46392;BME280;32098;49.448;7.904;2024-03-23T03:58:25;97134.75;;;10.05;76.71
46392;BME280;32098;49.448;7.904;2024-03-23T04:00:51;97135.59;;;10.10;77.01
46392;BME280;32098;49.448;7.904;2024-03-23T04:03:17;97231.41;;;10.60;77.14
46392;BME280;32098;49.448;7.904;2024-03-23T04:05:43;97185.44;;;10.31;77.34
46392;BME280;32098;49.448;7.904;2024-03-23T04:08:15;97153.25;;;10.00;78.19
46392;BME280;32098;49.448;7.904;2024-03-23T04:10:41;97169.69;;;9.97;77.19
46392;BME280;32098;49.448;7.904;2024-03-23T04:13:07;97228.00;;;10.31;77.94
46392;BME280;32098;49.448;7.904;2024-03-23T04:15:33;97247.53;;;10.37;77.30
46392;BME280;32098;49.448;7.904;2024-03-23T04:17:58;97239.03;;;10.40;77.29
46392;BME280;32098;49.448;7.904;2024-03-23T04:20:25;97157.84;;;9.76;76.99
46392;BME280;32098;49.448;7.904;2024-03-23T04:22:51;97231.69;;;10.30;76.41
46392;BME280;32098;49.448;7.904;2024-03-23T04:25:18;97178.50;;;9.85;76.81
46392;BME280;32098;49.448;7.904;2024-03-23T04:27:45;97209.19;;;10.05;76.63
46392;BME280;32098;49.448;7.904;2024-03-23T04:30:12;97158.78;;;9.70;75.95
46392;BME280;32098;49.448;7.904;2024-03-23T04:32:38;97263.69;;;10.19;76.16
46392;BME280;32098;49.448;7.904;2024-03-23T04:35:05;97264.00;;;10.22;76.29
46392;BME280;32098;49.448;7.904;2024-03-23T04:37:32;97200.72;;;9.79;76.33
46392;BME280;32098;49.448;7.904;2024-03-23T04:40:00;97217.44;;;9.80;76.66
46392;BME280;32098;49.448;7.904;2024-03-23T04:42:27;97246.16;;;10.06;76.79
46392;BME280;32098;49.448;7.904;2024-03-23T04:44:53;97284.81;;;10.25;77.21
46392;BME280;32098;49.448;7.904;2024-03-23T04:47:19;97197.78;;;9.64;77.44
46392;BME280;32098;49.448;7.904;2024-03-23T04:49:45;97256.34;;;9.98;78.23
46392;BME280;32098;49.448;7.904;2024-03-23T04:52:10;97276.16;;;9.78;79.72
46392;BME280;32098;49.448;7.904;2024-03-23T04:54:36;97284.81;;;9.85;79.99
46392;BME280;32098;49.448;7.904;2024-03-23T04:57:08;97282.31;;;9.67;80.68
46392;BME280;32098;49.448;7.904;2024-03-23T04:59:34;97291.09;;;9.68;80.83
46392;BME280;32098;49.448;7.904;2024-03-23T05:02:00;97343.19;;;9.92;81.03
46392;BME280;32098;49.448;7.904;2024-03-23T05:04:26;97309.72;;;9.56;80.74
46392;BME280;32098;49.448;7.904;2024-03-23T05:06:52;97256.63;;;8.57;79.53
46392;BME280;32098;49.448;7.904;2024-03-23T05:09:18;97342.38;;;8.69;80.00
46392;BME280;32098;49.448;7.904;2024-03-23T05:11:43;97274.06;;;8.23;79.57
46392;BME280;32098;49.448;7.904;2024-03-23T05:14:12;97223.28;;;7.78;80.11
46392;BME280;32098;49.448;7.904;2024-03-23T05:16:37;97369.22;;;8.61;79.76
46392;BME280;32098;49.448;7.904;2024-03-23T05:19:03;97249.53;;;7.98;80.03
46392;BME280;32098;49.448;7.904;2024-03-23T05:21:29;97376.44;;;8.84;78.43
46392;BME280;32098;49.448;7.904;2024-03-23T05:23:55;97359.84;;;8.58;77.93
46392;BME280;32098;49.448;7.904;2024-03-23T05:26:24;97389.84;;;8.89;77.78
46392;BME280;32098;49.448;7.904;2024-03-23T05:28:52;97286.19;;;8.31;76.66
46392;BME280;32098;49.448;7.904;2024-03-23T05:31:25;97217.91;;;7.85;76.50
46392;BME280;32098;49.448;7.904;2024-03-23T05:33:51;97321.09;;;8.57;76.20
46392;BME280;32098;49.448;7.904;2024-03-23T05:36:17;97382.72;;;9.01;76.67
46392;BME280;32098;49.448;7.904;2024-03-23T05:38:43;97314.75;;;8.58;75.69
46392;BME280;32098;49.448;7.904;2024-03-23T05:41:09;97323.16;;;8.55;75.20
46392;BME280;32098;49.448;7.904;2024-03-23T05:43:34;97282.91;;;8.17;74.53
46392;BME280;32098;49.448;7.904;2024-03-23T05:46:00;97320.53;;;8.26;74.25
46392;BME280;32098;49.448;7.904;2024-03-23T05:48:27;97398.63;;;8.89;73.28
46392;BME280;32098;49.448;7.904;2024-03-23T05:50:53;97372.69;;;8.61;74.48
46392;BME280;32098;49.448;7.904;2024-03-23T05:53:19;97426.81;;;9.02;73.74
46392;BME280;32098;49.448;7.904;2024-03-23T05:55:48;97433.38;;;8.99;73.77
46392;BME280;32098;49.448;7.904;2024-03-23T05:58:18;97300.88;;;8.15;73.85
46392;BME280;32098;49.448;7.904;2024-03-23T06:00:46;97449.78;;;9.08;73.67
46392;BME280;32098;49.448;7.904;2024-03-23T06:03:14;97405.13;;;8.75;73.17
46392;BME280;32098;49.448;7.904;2024-03-23T06:05:40;97456.16;;;9.07;72.99
46392;BME280;32098;49.448;7.904;2024-03-23T06:08:07;97423.16;;;8.85;73.19
46392;BME280;32098;49.448;7.904;2024-03-23T06:10:35;97316.19;;;8.13;73.82
46392;BME280;32098;49.448;7.904;2024-03-23T06:13:00;97383.34;;;8.25;72.85
46392;BME280;32098;49.448;7.904;2024-03-23T06:15:26;97418.50;;;8.50;73.56
46392;BME280;32098;49.448;7.904;2024-03-23T06:17:52;97435.09;;;8.28;72.22
46392;BME280;32098;49.448;7.904;2024-03-23T06:20:18;97483.00;;;8.51;71.65
46392;BME280;32098;49.448;7.904;2024-03-23T06:22:44;97437.25;;;8.19;71.86
46392;BME280;32098;49.448;7.904;2024-03-23T06:25:14;97406.28;;;7.77;71.72
46392;BME280;32098;49.448;7.904;2024-03-23T06:27:40;97440.63;;;8.08;72.14
46392;BME280;32098;49.448;7.904;2024-03-23T06:30:06;97415.88;;;7.96;72.02
46392;BME280;32098;49.448;7.904;2024-03-23T06:32:32;97485.41;;;8.52;71.54
46392;BME280;32098;49.448;7.904;2024-03-23T06:34:57;97495.88;;;8.65;70.54
46392;BME280;32098;49.448;7.904;2024-03-23T06:37:23;97422.88;;;8.09;70.62
46392;BME280;32098;49.448;7.904;2024-03-23T06:39:50;97410.94;;;7.99;70.80
46392;BME280;32098;49.448;7.904;2024-03-23T06:42:16;97465.38;;;8.38;70.19
46392;BME280;32098;49.448;7.904;2024-03-23T06:44:43;97521.72;;;8.70;69.85
46392;BME280;32098;49.448;7.904;2024-03-23T06:47:09;97466.09;;;8.27;70.03
46392;BME280;32098;49.448;7.904;2024-03-23T06:49:35;97546.19;;;8.90;69.51
46392;BME280;32098;49.448;7.904;2024-03-23T06:52:01;97518.41;;;8.75;70.40
46392;BME280;32098;49.448;7.904;2024-03-23T06:54:26;97448.94;;;8.30;70.47
46392;BME280;32098;49.448;7.904;2024-03-23T06:56:52;97526.38;;;8.75;69.59
46392;BME280;32098;49.448;7.904;2024-03-23T06:59:18;97516.66;;;8.68;68.19
46392;BME280;32098;49.448;7.904;2024-03-23T07:01:44;97528.91;;;8.51;67.81
46392;BME280;32098;49.448;7.904;2024-03-23T07:04:09;97533.16;;;8.52;67.66
46392;BME280;32098;49.448;7.904;2024-03-23T07:06:45;97574.88;;;8.82;68.24
46392;BME280;32098;49.448;7.904;2024-03-23T07:09:12;97580.50;;;8.74;67.61
46392;BME280;32098;49.448;7.904;2024-03-23T07:11:37;97554.91;;;8.61;67.73
46392;BME280;32098;49.448;7.904;2024-03-23T07:14:10;97459.81;;;7.85;68.04
46392;BME280;32098;49.448;7.904;2024-03-23T07:16:37;97569.63;;;8.39;67.52
46392;BME280;32098;49.448;7.904;2024-03-23T07:19:03;97620.72;;;8.71;67.09
46392;BME280;32098;49.448;7.904;2024-03-23T07:21:29;97568.59;;;8.15;66.52
46392;BME280;32098;49.448;7.904;2024-03-23T07:23:55;97627.50;;;8.66;66.99
46392;BME280;32098;49.448;7.904;2024-03-23T07:26:20;97567.47;;;8.29;67.06
46392;BME280;32098;49.448;7.904;2024-03-23T07:28:47;97554.41;;;8.28;67.22
46392;BME280;32098;49.448;7.904;2024-03-23T07:31:14;97591.84;;;8.81;81.41
46392;BME280;32098;49.448;7.904;2024-03-23T07:33:44;97635.47;;;9.57;86.39
46392;BME280;32098;49.448;7.904;2024-03-23T07:36:14;97522.84;;;8.62;68.76
46392;BME280;32098;49.448;7.904;2024-03-23T07:38:41;97632.91;;;10.22;80.76
46392;BME280;32098;49.448;7.904;2024-03-23T07:41:10;97641.63;;;10.75;75.21
46392;BME280;32098;49.448;7.904;2024-03-23T07:43:39;97595.16;;;11.17;66.58
46392;BME280;32098;49.448;7.904;2024-03-23T07:46:08;97575.50;;;11.47;69.34
46392;BME280;32098;49.448;7.904;2024-03-23T07:48:34;97635.47;;;12.34;63.90
46392;BME280;32098;49.448;7.904;2024-03-23T07:51:01;97643.63;;;12.61;65.36
46392;BME280;32098;49.448;7.904;2024-03-23T07:53:33;97625.53;;;12.01;55.47
46392;BME280;32098;49.448;7.904;2024-03-23T07:56:02;97585.25;;;11.86;64.55
46392;BME280;32098;49.448;7.904;2024-03-23T07:58:28;97656.72;;;12.01;55.03
46392;BME280;32098;49.448;7.904;2024-03-23T08:00:55;97609.06;;;11.08;57.82
46392;BME280;32098;49.448;7.904;2024-03-23T08:03:21;97668.69;;;11.18;59.54
46392;BME280;32098;49.448;7.904;2024-03-23T08:05:47;97566.63;;;10.78;67.35
46392;BME280;32098;49.448;7.904;2024-03-23T08:08:13;97628.50;;;11.32;64.74
46392;BME280;32098;49.448;7.904;2024-03-23T08:10:49;97660.41;;;11.83;64.25
46392;BME280;32098;49.448;7.904;2024-03-23T08:13:17;97686.53;;;12.37;64.76
46392;BME280;32098;49.448;7.904;2024-03-23T08:15:43;97670.09;;;12.45;62.50
46392;BME280;32098;49.448;7.904;2024-03-23T08:18:12;97681.44;;;12.53;61.24
46392;BME280;32098;49.448;7.904;2024-03-23T08:20:38;97643.72;;;12.32;60.51
46392;BME280;32098;49.448;7.904;2024-03-23T08:23:06;97699.69;;;12.94;60.08
46392;BME280;32098;49.448;7.904;2024-03-23T08:25:33;97647.75;;;12.68;57.50
46392;BME280;32098;49.448;7.904;2024-03-23T08:27:59;97452.06;;;11.30;53.78
46392;BME280;32098;49.448;7.904;2024-03-23T08:30:25;97544.56;;;12.24;59.06
46392;BME280;32098;49.448;7.904;2024-03-23T08:32:51;97509.81;;;12.19;58.98
46392;BME280;32098;49.448;7.904;2024-03-23T08:35:17;97495.25;;;12.26;59.23
46392;BME280;32098;49.448;7.904;2024-03-23T08:37:43;97619.28;;;12.95;48.52
46392;BME280;32098;49.448;7.904;2024-03-23T08:40:09;97655.63;;;13.13;47.83
46392;BME280;32098;49.448;7.904;2024-03-23T08:42:39;97602.56;;;12.83;46.96
46392;BME280;32098;49.448;7.904;2024-03-23T08:45:08;97632.22;;;12.48;46.97
46392;BME280;32098;49.448;7.904;2024-03-23T08:47:35;97671.22;;;12.83;47.39
46392;BME280;32098;49.448;7.904;2024-03-23T08:50:01;97710.03;;;13.40;47.82
46392;BME280;32098;49.448;7.904;2024-03-23T08:52:27;97645.47;;;12.93;47.78
46392;BME280;32098;49.448;7.904;2024-03-23T08:54:55;97659.69;;;12.99;48.54
46392;BME280;32098;49.448;7.904;2024-03-23T08:57:24;97720.75;;;13.07;47.55
46392;BME280;32098;49.448;7.904;2024-03-23T08:59:50;97553.22;;;12.14;47.04
46392;BME280;32098;49.448;7.904;2024-03-23T09:02:16;97694.19;;;13.00;48.25
46392;BME280;32098;49.448;7.904;2024-03-23T09:04:42;97676.94;;;13.46;46.88
46392;BME280;32098;49.448;7.904;2024-03-23T09:07:07;97608.88;;;13.32;46.13
46392;BME280;32098;49.448;7.904;2024-03-23T09:09:33;97515.56;;;13.09;45.88
46392;BME280;32098;49.448;7.904;2024-03-23T09:12:01;97661.38;;;13.87;46.44
46392;BME280;32098;49.448;7.904;2024-03-23T09:14:27;97538.69;;;13.20;44.63
46392;BME280;32098;49.448;7.904;2024-03-23T09:16:56;97673.50;;;14.21;43.94
46392;BME280;32098;49.448;7.904;2024-03-23T09:19:22;97681.56;;;14.26;43.79
46392;BME280;32098;49.448;7.904;2024-03-23T09:21:49;97635.22;;;13.94;44.93
46392;BME280;32098;49.448;7.904;2024-03-23T09:24:15;97635.50;;;13.70;44.58
46392;BME280;32098;49.448;7.904;2024-03-23T09:26:40;97716.13;;;13.57;44.63
46392;BME280;32098;49.448;7.904;2024-03-23T09:29:10;97584.97;;;12.66;45.95
46392;BME280;32098;49.448;7.904;2024-03-23T09:31:36;97723.16;;;13.42;45.86
46392;BME280;32098;49.448;7.904;2024-03-23T09:34:04;97480.38;;;11.97;46.45
46392;BME280;32098;49.448;7.904;2024-03-23T09:36:32;97605.56;;;13.25;45.50
46392;BME280;32098;49.448;7.904;2024-03-23T09:38:57;97710.13;;;14.15;45.95
46392;BME280;32098;49.448;7.904;2024-03-23T09:41:23;97344.84;;;11.94;45.27
46392;BME280;32098;49.448;7.904;2024-03-23T09:43:52;97524.31;;;13.04;44.94
46392;BME280;32098;49.448;7.904;2024-03-23T09:46:19;97741.72;;;14.40;44.08
46392;BME280;32098;49.448;7.904;2024-03-23T09:48:46;97551.72;;;13.38;43.19
46392;BME280;32098;49.448;7.904;2024-03-23T09:51:12;97637.44;;;14.02;42.87
46392;BME280;32098;49.448;7.904;2024-03-23T09:53:38;97645.59;;;13.85;42.27
46392;BME280;32098;49.448;7.904;2024-03-23T09:56:05;97675.28;;;14.10;41.88
46392;BME280;32098;49.448;7.904;2024-03-23T09:58:31;97690.72;;;14.03;42.73
46392;BME280;32098;49.448;7.904;2024-03-23T10:00:58;97657.81;;;14.03;43.28
46392;BME280;32098;49.448;7.904;2024-03-23T10:03:24;97487.56;;;12.90;42.74
46392;BME280;32098;49.448;7.904;2024-03-23T10:06:03;97677.53;;;14.23;43.98
46392;BME280;32098;49.448;7.904;2024-03-23T10:08:30;97633.78;;;14.08;41.75
46392;BME280;32098;49.448;7.904;2024-03-23T10:10:56;97658.78;;;14.45;43.58
46392;BME280;32098;49.448;7.904;2024-03-23T10:13:27;97666.91;;;14.55;42.36
46392;BME280;32098;49.448;7.904;2024-03-23T10:15:58;97461.66;;;13.17;40.66
46392;BME280;32098;49.448;7.904;2024-03-23T10:18:25;97595.44;;;13.75;41.50
46392;BME280;32098;49.448;7.904;2024-03-23T10:23:39;97565.97;;;13.70;39.63
46392;BME280;32098;49.448;7.904;2024-03-23T10:26:28;97690.47;;;14.58;39.27
46392;BME280;32098;49.448;7.904;2024-03-23T10:29:00;97645.81;;;14.37;39.68
46392;BME280;32098;49.448;7.904;2024-03-23T10:31:27;97672.38;;;14.70;39.56
46392;BME280;32098;49.448;7.904;2024-03-23T10:33:53;97670.16;;;14.62;41.22
46392;BME280;32098;49.448;7.904;2024-03-23T10:36:21;97583.59;;;14.25;39.45
46392;BME280;32098;49.448;7.904;2024-03-23T10:38:49;97600.53;;;14.67;39.24
46392;BME280;32098;49.448;7.904;2024-03-23T10:41:16;97674.34;;;14.85;40.54
46392;BME280;32098;49.448;7.904;2024-03-23T10:43:43;97672.38;;;14.70;40.47
46392;BME280;32098;49.448;7.904;2024-03-23T10:46:11;97685.84;;;14.80;39.97
46392;BME280;32098;49.448;7.904;2024-03-23T10:48:37;97685.06;;;14.48;39.70
46392;BME280;32098;49.448;7.904;2024-03-23T10:51:07;97623.72;;;14.20;40.66
46392;BME280;32098;49.448;7.904;2024-03-23T10:53:34;97458.84;;;13.02;41.31
46392;BME280;32098;49.448;7.904;2024-03-23T10:56:04;97556.06;;;13.44;41.34
46392;BME280;32098;49.448;7.904;2024-03-23T10:58:38;97663.22;;;13.21;44.71
46392;BME280;32098;49.448;7.904;2024-03-23T11:01:04;97529.66;;;11.78;50.52
46392;BME280;32098;49.448;7.904;2024-03-23T11:03:36;97544.84;;;11.04;53.92
46392;BME280;32098;49.448;7.904;2024-03-23T11:06:06;97623.31;;;11.53;56.15
46392;BME280;32098;49.448;7.904;2024-03-23T11:08:40;97742.56;;;12.09;55.89
46392;BME280;32098;49.448;7.904;2024-03-23T11:11:18;97619.66;;;10.91;56.80
46392;BME280;32098;49.448;7.904;2024-03-23T11:13:51;97605.66;;;10.73;57.24
46392;BME280;32098;49.448;7.904;2024-03-23T11:18:51;97616.31;;;11.36;58.39
46392;BME280;32098;49.448;7.904;2024-03-23T11:21:52;97733.38;;;12.05;55.46
46392;BME280;32098;49.448;7.904;2024-03-23T11:24:20;97701.69;;;11.80;55.82
46392;BME280;32098;49.448;7.904;2024-03-23T11:26:47;97659.81;;;11.53;55.33
46392;BME280;32098;49.448;7.904;2024-03-23T11:29:15;97579.25;;;11.22;54.98
46392;BME280;32098;49.448;7.904;2024-03-23T11:31:48;97708.34;;;12.34;55.41
46392;BME280;32098;49.448;7.904;2024-03-23T11:34:18;97709.03;;;12.13;52.52
46392;BME280;32098;49.448;7.904;2024-03-23T11:36:48;97723.91;;;12.09;52.28
46392;BME280;32098;49.448;7.904;2024-03-23T11:39:17;97686.00;;;11.67;51.16
46392;BME280;32098;49.448;7.904;2024-03-23T11:41:53;97731.47;;;11.38;52.35
46392;BME280;32098;49.448;7.904;2024-03-23T11:44:25;97727.66;;;10.99;55.09
46392;BME280;32098;49.448;7.904;2024-03-23T11:46:52;97803.81;;;10.47;58.79
46392;BME280;32098;49.448;7.904;2024-03-23T11:51:51;97780.56;;;10.54;62.76
46392;BME280;32098;49.448;7.904;2024-03-23T11:54:20;97601.13;;;9.26;63.63
46392;BME280;32098;49.448;7.904;2024-03-23T11:57:08;97746.00;;;10.24;63.63
46392;BME280;32098;49.448;7.904;2024-03-23T11:59:35;97750.13;;;10.50;65.87
46392;BME280;32098;49.448;7.904;2024-03-23T12:02:11;97555.81;;;9.39;64.91
46392;BME280;32098;49.448;7.904;2024-03-23T12:04:39;97672.81;;;10.33;64.44
46392;BME280;32098;49.448;7.904;2024-03-23T12:07:13;97674.69;;;10.44;64.91
46392;BME280;32098;49.448;7.904;2024-03-23T12:09:41;97554.31;;;9.43;61.21
46392;BME280;32098;49.448;7.904;2024-03-23T12:12:10;97749.94;;;10.63;62.15
46392;BME280;32098;49.448;7.904;2024-03-23T12:14:37;97664.44;;;10.07;63.36
46392;BME280;32098;49.448;7.904;2024-03-23T12:17:14;97772.28;;;10.32;62.50
46392;BME280;32098;49.448;7.904;2024-03-23T12:19:41;97756.72;;;9.88;60.88
46392;BME280;32098;49.448;7.904;2024-03-23T12:22:08;97806.56;;;9.74;63.62
46392;BME280;32098;49.448;7.904;2024-03-23T12:24:37;97777.38;;;9.07;62.93
46392;BME280;32098;49.448;7.904;2024-03-23T12:27:05;97799.22;;;9.09;64.57
46392;BME280;32098;49.448;7.904;2024-03-23T12:29:31;97686.47;;;8.19;66.11
46392;BME280;32098;49.448;7.904;2024-03-23T12:32:05;97774.22;;;8.67;66.74
46392;BME280;32098;49.448;7.904;2024-03-23T12:34:57;97767.56;;;8.58;66.58
46392;BME280;32098;49.448;7.904;2024-03-23T12:37:25;97753.59;;;8.44;67.89
46392;BME280;32098;49.448;7.904;2024-03-23T12:39:51;97731.72;;;8.74;69.54
46392;BME280;32098;49.448;7.904;2024-03-23T12:42:17;97721.88;;;8.81;70.01
46392;BME280;32098;49.448;7.904;2024-03-23T12:44:43;97751.47;;;9.02;68.78
46392;BME280;32098;49.448;7.904;2024-03-23T12:47:09;97679.94;;;8.64;68.13
46392;BME280;32098;49.448;7.904;2024-03-23T12:49:36;97649.84;;;8.52;67.94
46392;BME280;32098;49.448;7.904;2024-03-23T12:52:02;97590.34;;;8.48;67.41
46392;BME280;32098;49.448;7.904;2024-03-23T12:54:33;97703.22;;;9.30;68.37
46392;BME280;32098;49.448;7.904;2024-03-23T12:57:00;97447.69;;;7.96;67.80
46392;BME280;32098;49.448;7.904;2024-03-23T12:59:28;97613.22;;;8.86;68.61
46392;BME280;32098;49.448;7.904;2024-03-23T13:01:54;97389.59;;;7.33;65.15
46392;BME280;32098;49.448;7.904;2024-03-23T13:04:20;97482.13;;;7.96;65.69
46392;BME280;32098;49.448;7.904;2024-03-23T13:06:46;97356.59;;;7.29;66.39
46392;BME280;32098;49.448;7.904;2024-03-23T13:09:13;97486.38;;;7.97;65.19
46392;BME280;32098;49.448;7.904;2024-03-23T13:11:39;97712.38;;;9.34;66.28
46392;BME280;32098;49.448;7.904;2024-03-23T13:14:05;97564.56;;;8.74;65.90
46392;BME280;32098;49.448;7.904;2024-03-23T13:16:31;97559.16;;;8.80;65.62
46392;BME280;32098;49.448;7.904;2024-03-23T13:18:57;97552.69;;;8.94;64.87
46392;BME280;32098;49.448;7.904;2024-03-23T13:21:23;97619.56;;;9.39;62.62
46392;BME280;32098;49.448;7.904;2024-03-23T13:23:49;97549.28;;;9.05;63.12
46392;BME280;32098;49.448;7.904;2024-03-23T13:26:16;97549.84;;;9.07;63.01
46392;BME280;32098;49.448;7.904;2024-03-23T13:28:42;97420.88;;;8.22;63.39
46392;BME280;32098;49.448;7.904;2024-03-23T13:31:08;97666.69;;;9.91;63.29
46392;BME280;32098;49.448;7.904;2024-03-23T13:33:34;97648.41;;;9.83;62.46
46392;BME280;32098;49.448;7.904;2024-03-23T13:36:00;97604.13;;;9.48;59.83
46392;BME280;32098;49.448;7.904;2024-03-23T13:38:26;97618.38;;;9.35;59.47
46392;BME280;32098;49.448;7.904;2024-03-23T13:40:53;97661.66;;;9.72;60.65
46392;BME280;32098;49.448;7.904;2024-03-23T13:43:19;97565.06;;;9.18;60.17
46392;BME280;32098;49.448;7.904;2024-03-23T13:45:47;97633.53;;;9.64;59.97
46392;BME280;32098;49.448;7.904;2024-03-23T13:48:15;97627.41;;;9.93;61.10
46392;BME280;32098;49.448;7.904;2024-03-23T13:50:41;97644.25;;;9.87;62.20
46392;BME280;32098;49.448;7.904;2024-03-23T13:53:07;97558.13;;;9.47;59.90
46392;BME280;32098;49.448;7.904;2024-03-23T13:55:34;97600.34;;;9.55;57.99
46392;BME280;32098;49.448;7.904;2024-03-23T13:58:00;97529.13;;;9.34;56.06
46392;BME280;32098;49.448;7.904;2024-03-23T14:00:26;97645.94;;;10.12;56.97
46392;BME280;32098;49.448;7.904;2024-03-23T14:02:51;97670.59;;;10.30;55.83
46392;BME280;32098;49.448;7.904;2024-03-23T14:05:17;97615.56;;;10.19;55.77